createdAt,value
2019-04-28T00:02:08.524Z,99215.70
2019-04-28T00:06:11.055Z,99213.25
2019-04-28T00:10:13.237Z,99211.86
2019-04-28T00:14:14.845Z,99212.81
2019-04-28T00:18:16.537Z,99214.25
2019-04-28T00:22:18.302Z,99220.12
2019-04-28T00:26:21.121Z,99210.10
2019-04-28T00:30:23.467Z,99211.66
2019-04-28T00:34:25.039Z,99206.91
2019-04-28T00:38:26.602Z,99210.45
2019-04-28T00:42:28.418Z,99210.88
2019-04-28T00:46:31.126Z,99206.24
2019-04-28T00:50:32.797Z,99211.16
2019-04-28T00:54:34.355Z,99208.77
2019-04-28T00:58:35.925Z,99212.65
2019-04-28T01:02:37.618Z,99214.16
2019-04-28T01:06:39.224Z,99212.65
2019-04-28T01:10:41.047Z,99210.96
2019-04-28T01:14:43.488Z,99203.19
2019-04-28T01:18:45.156Z,99203.97
2019-04-28T01:22:46.779Z,99206.21
2019-04-28T01:26:50.735Z,99201.68
2019-04-28T01:30:52.146Z,99206.14
2019-04-28T01:34:53.702Z,99206.14
2019-04-28T01:38:55.395Z,99204.48
2019-04-28T01:42:56.968Z,99201.77
2019-04-28T01:47:00.944Z,99202.53
2019-04-28T01:51:02.202Z,99215.55
2019-04-28T01:55:04.161Z,99213.00
2019-04-28T01:59:05.696Z,99218.22
2019-04-28T02:03:07.286Z,99223.69
2019-04-28T02:07:10.881Z,99222.50
2019-04-28T02:11:12.324Z,99225.41
2019-04-28T02:15:13.929Z,99217.24
2019-04-28T02:19:15.885Z,99229.97
2019-04-28T02:23:17.675Z,99224.25
2019-04-28T02:27:20.381Z,99229.23
2019-04-28T02:31:24.406Z,99239.98
2019-04-28T02:35:31.479Z,99234.72
2019-04-28T02:39:32.007Z,99237.14
2019-04-28T02:43:33.733Z,99238.67
2019-04-28T02:47:35.282Z,99235.55
2019-04-28T02:51:36.835Z,99236.34
2019-04-28T02:55:41.060Z,99237.66
2019-04-28T02:59:44.669Z,99237.02
2019-04-28T03:03:45.397Z,99240.13
2019-04-28T03:07:47.059Z,99242.36
2019-04-28T03:11:51.013Z,99241.86
2019-04-28T03:15:52.073Z,99238.77
2019-04-28T03:19:53.828Z,99247.91
2019-04-28T03:23:55.451Z,99247.11
2019-04-28T03:27:57.041Z,99246.37
2019-04-28T03:32:20.672Z,99251.95
2019-04-28T03:36:07.131Z,99245.48
2019-04-28T03:40:05.703Z,99248.95
2019-04-28T03:44:07.334Z,99242.67
2019-04-28T03:48:11.340Z,99250.52
2019-04-28T03:52:12.515Z,99248.38
2019-04-28T03:56:14.211Z,99250.72
2019-04-28T04:00:15.867Z,99248.48
2019-04-28T04:04:18.071Z,99243.38
2019-04-28T04:08:20.833Z,99248.94
2019-04-28T04:12:23.462Z,99251.83
2019-04-28T04:16:25.165Z,99252.00
2019-04-28T04:20:26.833Z,99247.84
2019-04-28T04:24:30.632Z,99247.84
2019-04-28T04:28:31.971Z,99247.56
2019-04-28T04:32:34.011Z,99254.58
2019-04-28T04:36:35.801Z,99252.23
2019-04-28T04:40:37.350Z,99261.19
2019-04-28T04:44:41.507Z,99266.97
2019-04-28T04:48:42.918Z,99271.01
2019-04-28T04:52:44.505Z,99279.66
2019-04-28T04:56:46.231Z,99280.38
2019-04-28T05:00:47.843Z,99287.16
2019-04-28T05:04:50.622Z,99287.16
2019-04-28T05:08:52.254Z,99288.20
2019-04-28T05:12:53.821Z,99292.56
2019-04-28T05:16:55.492Z,99297.19
2019-04-28T05:20:57.068Z,99297.56
2019-04-28T05:25:00.093Z,99300.39
2019-04-28T05:29:01.810Z,99308.97
2019-04-28T05:33:03.368Z,99309.34
2019-04-28T05:37:05.019Z,99309.75
2019-04-28T05:41:06.592Z,99308.31
2019-04-28T05:45:10.268Z,99310.47
2019-04-28T05:49:11.824Z,99317.09
2019-04-28T05:53:13.504Z,99320.80
2019-04-28T05:57:15.196Z,99312.06
2019-04-28T06:01:16.952Z,99317.34
2019-04-28T06:05:20.002Z,99326.28
2019-04-28T06:09:22.173Z,99328.30
2019-04-28T06:13:23.768Z,99331.27
2019-04-28T06:17:25.592Z,99337.39
2019-04-28T06:21:27.196Z,99331.79
2019-04-28T06:25:28.789Z,99339.22
2019-04-28T06:29:30.413Z,99335.29
2019-04-28T06:33:32.358Z,99334.33
2019-04-28T06:37:33.989Z,99337.87
2019-04-28T06:41:35.908Z,99343.98
2019-04-28T06:45:37.547Z,99346.50
2019-04-28T06:49:39.192Z,99350.27
2019-04-28T06:53:41.061Z,99351.94
2019-04-28T06:57:42.769Z,99351.94
2019-04-28T07:01:44.417Z,99362.23
2019-04-28T07:05:46.058Z,99369.16
2019-04-28T07:09:47.710Z,99366.81
2019-04-28T07:13:49.395Z,99366.81
2019-04-28T07:17:51.366Z,99363.77
2019-04-28T07:21:53.431Z,99365.30
2019-04-28T07:25:55.160Z,99361.30
2019-04-28T07:29:56.809Z,99361.30
2019-04-28T07:33:58.785Z,99360.48
2019-04-28T07:38:00.780Z,99370.70
2019-04-28T07:42:03.240Z,99370.70
2019-04-28T07:46:04.880Z,99368.98
2019-04-28T07:50:06.962Z,99379.07
2019-04-28T07:54:08.744Z,99377.24
2019-04-28T07:58:10.378Z,99383.81
2019-04-28T08:02:12.755Z,99383.81
2019-04-28T08:06:14.564Z,99393.53
2019-04-28T08:10:16.356Z,99395.12
2019-04-28T08:14:19.650Z,99395.12
2019-04-28T08:18:21.418Z,99393.27
2019-04-28T08:22:23.014Z,99397.22
2019-04-28T08:26:24.628Z,99397.22
2019-04-28T08:30:27.285Z,99386.93
2019-04-28T08:34:29.205Z,99397.56
2019-04-28T08:38:30.841Z,99397.56
2019-04-28T08:42:32.474Z,99398.63
2019-04-28T08:46:34.308Z,99397.48
2019-04-28T08:50:35.969Z,99394.67
2019-04-28T08:54:37.621Z,99386.74
2019-04-28T08:58:39.281Z,99400.37
2019-04-28T09:02:41.292Z,99400.37
2019-04-28T09:06:42.891Z,99395.03
2019-04-28T09:10:45.164Z,99400.25
2019-04-28T09:14:47.004Z,99394.34
2019-04-28T09:18:48.882Z,99399.52
2019-04-28T09:22:50.497Z,99402.06
2019-04-28T09:26:52.261Z,99406.59
2019-04-28T09:30:53.960Z,99411.64
2019-04-28T09:34:55.662Z,99408.11
2019-04-28T09:38:57.347Z,99418.96
2019-04-28T09:42:59.955Z,99419.70
2019-04-28T09:47:01.542Z,99416.20
2019-04-28T09:51:03.174Z,99417.92
2019-04-28T09:55:04.818Z,99420.13
2019-04-28T09:59:07.417Z,99421.89
2019-04-28T10:03:09.812Z,99425.52
2019-04-28T10:07:11.993Z,99424.48
2019-04-28T10:11:13.651Z,99427.08
2019-04-28T10:15:15.502Z,99426.42
2019-04-28T10:19:18.112Z,99427.92
2019-04-28T10:23:20.748Z,99428.10
2019-04-28T10:27:22.403Z,99433.45
2019-04-28T10:31:25.398Z,99439.20
2019-04-28T10:35:28.010Z,99439.52
2019-04-28T10:39:30.352Z,99436.91
2019-04-28T10:43:32.576Z,99436.09
2019-04-28T10:47:34.705Z,99425.46
2019-04-28T10:51:37.276Z,99434.05
2019-04-28T10:55:40.077Z,99425.77
2019-04-28T10:59:42.447Z,99428.94
2019-04-28T11:03:44.787Z,99427.35
2019-04-28T11:07:46.392Z,99423.81
2019-04-28T11:11:48.201Z,99423.02
2019-04-28T11:15:50.608Z,99430.31
2019-04-28T11:19:52.373Z,99422.63
2019-04-28T11:23:55.107Z,99433.84
2019-04-28T11:27:58.633Z,99427.71
2019-04-28T11:32:01.112Z,99435.85
2019-04-28T11:36:02.919Z,99426.38
2019-04-28T11:40:06.386Z,99434.45
2019-04-28T11:44:10.697Z,99426.50
2019-04-28T11:48:12.529Z,99432.45
2019-04-28T11:52:14.535Z,99426.31
2019-04-28T11:56:16.398Z,99434.06
2019-04-28T12:00:18.562Z,99432.48
2019-04-28T12:04:20.375Z,99429.51
2019-04-28T12:08:24.188Z,99435.63
2019-04-28T12:12:26.526Z,99437.84
2019-04-28T12:16:28.612Z,99431.56
2019-04-28T12:20:31.779Z,99433.23
2019-04-28T12:24:34.173Z,99436.34
2019-04-28T12:28:35.838Z,99446.97
2019-04-28T12:32:37.939Z,99452.86
2019-04-28T12:36:39.596Z,99447.97
2019-04-28T12:40:41.194Z,99458.03
2019-04-28T12:44:43.358Z,99458.41
2019-04-28T12:48:44.963Z,99460.91
2019-04-28T12:52:46.749Z,99466.70
2019-04-28T12:56:48.531Z,99460.93
2019-04-28T13:00:50.350Z,99468.50
2019-04-28T13:04:52.438Z,99460.55
2019-04-28T13:08:54.455Z,99476.44
2019-04-28T13:12:56.740Z,99478.82
2019-04-28T13:16:58.498Z,99479.70
2019-04-28T13:21:00.478Z,99482.97
2019-04-28T13:25:02.500Z,99493.13
2019-04-28T13:32:03.955Z,99488.16
2019-04-28T13:36:14.477Z,99488.92
2019-04-28T13:40:11.662Z,99492.73
2019-04-28T13:44:14.014Z,99487.11
2019-04-28T13:48:15.813Z,99486.52
2019-04-28T13:52:18.147Z,99494.02
2019-04-28T13:56:20.656Z,99496.86
2019-04-28T14:00:22.795Z,99485.80
2019-04-28T14:04:24.668Z,99491.73
2019-04-28T14:08:27.355Z,99487.60
2019-04-28T14:12:29.123Z,99491.20
2019-04-28T14:16:32.748Z,99496.92
2019-04-28T14:20:35.239Z,99497.17
2019-04-28T14:24:37.532Z,99497.17
2019-04-28T14:28:39.318Z,99495.15
2019-04-28T14:32:41.031Z,99497.48
2019-04-28T14:36:43.001Z,99497.70
2019-04-28T14:40:44.664Z,99496.47
2019-04-28T14:44:46.405Z,99501.62
2019-04-28T14:48:49.465Z,99502.62
2019-04-28T14:52:51.365Z,99503.83
2019-04-28T14:56:53.650Z,99510.52
2019-04-28T15:00:55.572Z,99512.73
2019-04-28T15:04:57.792Z,99506.86
2019-04-28T15:09:00.553Z,99504.67
2019-04-28T15:13:02.616Z,99508.09
2019-04-28T15:17:04.432Z,99508.73
2019-04-28T15:21:06.149Z,99510.56
2019-04-28T15:25:08.433Z,99506.41
2019-04-28T15:29:10.082Z,99510.64
2019-04-28T15:33:11.927Z,99514.84
2019-04-28T15:37:15.508Z,99511.00
2019-04-28T15:41:21.847Z,99510.37
2019-04-28T15:45:21.090Z,99508.61
2019-04-28T15:49:23.008Z,99506.05
2019-04-28T15:53:24.744Z,99514.50
2019-04-28T15:57:26.935Z,99513.33
2019-04-28T16:01:29.642Z,99509.62
2019-04-28T16:05:31.366Z,99516.33
2019-04-28T16:09:33.720Z,99517.48
2019-04-28T16:13:35.970Z,99522.39
2019-04-28T16:17:37.706Z,99525.75
2019-04-28T16:21:40.380Z,99526.77
2019-04-28T16:25:42.818Z,99532.95
2019-04-28T16:29:44.715Z,99524.25
2019-04-28T16:33:46.632Z,99532.16
2019-04-28T16:37:49.331Z,99540.67
2019-04-28T16:41:51.083Z,99543.63
2019-04-28T16:45:52.834Z,99545.81
2019-04-28T16:49:54.610Z,99540.66
2019-04-28T16:53:56.667Z,99556.23
2019-04-28T16:57:59.631Z,99559.37
2019-04-28T17:02:01.620Z,99560.83
2019-04-28T17:06:03.738Z,99552.73
2019-04-28T17:10:06.505Z,99562.48
2019-04-28T17:14:08.297Z,99564.62
2019-04-28T17:18:10.534Z,99566.73
2019-04-28T17:22:12.904Z,99571.77
2019-04-28T17:26:14.720Z,99571.08
2019-04-28T17:30:16.643Z,99578.43
2019-04-28T17:34:19.947Z,99583.72
2019-04-28T17:38:21.632Z,99581.35
2019-04-28T17:42:23.529Z,99588.22
2019-04-28T17:46:25.295Z,99592.43
2019-04-28T17:50:27.071Z,99594.34
2019-04-28T17:54:28.894Z,99588.84
2019-04-28T17:58:30.958Z,99597.13
2019-04-28T18:02:32.659Z,99603.36
2019-04-28T18:06:34.680Z,99606.58
2019-04-28T18:10:37.993Z,99614.92
2019-04-28T18:14:40.807Z,99623.95
2019-04-28T18:18:42.977Z,99635.27
2019-04-28T18:22:45.092Z,99640.64
2019-04-28T18:26:47.537Z,99647.57
2019-04-28T18:30:49.659Z,99660.15
2019-04-28T18:34:52.574Z,99670.45
2019-04-28T18:38:54.303Z,99670.45
2019-04-28T18:42:58.110Z,99672.14
2019-04-28T18:47:01.644Z,99679.25
2019-04-28T18:51:04.222Z,99681.48
2019-04-28T18:55:08.124Z,99693.33
2019-04-28T18:59:10.727Z,99696.32
2019-04-28T19:03:12.801Z,99696.99
2019-04-28T19:07:15.316Z,99703.11
2019-04-28T19:11:18.325Z,99708.19
2019-04-28T19:15:22.783Z,99719.53
2019-04-28T19:19:25.408Z,99721.62
2019-04-28T19:23:27.927Z,99724.24
2019-04-28T19:27:32.765Z,99740.11
2019-04-28T19:31:35.216Z,99728.52
2019-04-28T19:35:39.170Z,99739.16
2019-04-28T19:39:42.041Z,99744.73
2019-04-28T19:43:44.489Z,99749.63
2019-04-28T19:47:46.718Z,99744.28
2019-04-28T19:51:48.635Z,99757.14
2019-04-28T19:55:50.616Z,99764.23
2019-04-28T19:59:53.124Z,99756.86
2019-04-28T20:03:56.821Z,99775.20
2019-04-28T20:07:59.435Z,99775.20
2019-04-28T20:12:01.910Z,99778.27
2019-04-28T20:16:04.756Z,99781.77
2019-04-28T20:20:07.064Z,99786.60
2019-04-28T20:24:09.358Z,99795.30
2019-04-28T20:28:11.642Z,99797.96
2019-04-28T20:32:14.005Z,99791.95
2019-04-28T20:36:16.476Z,99793.70
2019-04-28T20:40:19.461Z,99795.19
2019-04-28T20:44:22.382Z,99795.72
2019-04-28T20:48:25.516Z,99803.05
2019-04-28T20:52:28.087Z,99810.39
2019-04-28T20:56:32.106Z,99813.23
2019-04-28T21:00:34.343Z,99813.23
2019-04-28T21:04:37.118Z,99815.08
2019-04-28T21:08:39.445Z,99813.42
2019-04-28T21:12:41.465Z,99822.98
2019-04-28T21:16:43.623Z,99822.48
2019-04-28T21:20:46.343Z,99820.55
2019-04-28T21:24:48.982Z,99828.67
2019-04-28T21:28:51.832Z,99829.61
2019-04-28T21:32:54.281Z,99831.66
2019-04-28T21:36:57.060Z,99837.94
2019-04-28T21:40:59.037Z,99836.13
2019-04-28T21:45:01.013Z,99831.92
2019-04-28T21:49:04.298Z,99832.64
2019-04-28T21:53:06.574Z,99823.75
2019-04-28T21:57:09.252Z,99840.37
2019-04-28T22:01:15.472Z,99837.05
2019-04-28T22:05:29.900Z,99825.23
2019-04-28T22:09:23.039Z,99839.03
2019-04-28T22:13:25.372Z,99835.96
2019-04-28T22:17:28.341Z,99841.91
2019-04-28T22:21:30.287Z,99834.16
2019-04-28T22:25:32.485Z,99838.26
2019-04-28T22:29:35.020Z,99841.00
2019-04-28T22:33:36.879Z,99840.56
2019-04-28T22:37:40.152Z,99844.35
2019-04-28T22:41:42.341Z,99839.76
2019-04-28T22:45:44.469Z,99844.45
2019-04-28T22:49:46.272Z,99841.47
2019-04-28T22:53:49.016Z,99848.44
2019-04-28T22:57:50.797Z,99849.37
2019-04-28T23:01:52.790Z,99860.52
2019-04-28T23:05:55.658Z,99860.08
2019-04-28T23:09:58.282Z,99865.32
2019-04-28T23:14:01.617Z,99869.99
2019-04-28T23:18:04.378Z,99878.67
2019-04-28T23:22:06.230Z,99878.20
2019-04-28T23:26:08.151Z,99885.04
2019-04-28T23:30:09.915Z,99881.62
2019-04-28T23:34:11.597Z,99880.36
2019-04-28T23:38:13.587Z,99881.05
2019-04-28T23:42:15.343Z,99883.73
2019-04-28T23:46:17.020Z,99876.30
2019-04-28T23:50:18.787Z,99881.06
2019-04-28T23:54:21.035Z,99892.33
2019-04-28T23:58:22.705Z,99887.50
